Time;durP1;ratioP1;P1;durP2;ratioP2;P2;SDS_P1;SDS_P2;PMS_P1;PMS_P2;Temp;Humidity;BMP_temperature;BMP_pressure;BME280_temperature;BME280_humidity;BME280_pressure;Samples;Min_cycle;Max_cycle;Signal;HPM_P1;HPM_P2
2021/08/24 00:00:15;;;;;;;;;;;;;;;;;;2049362;28;1582;-84
2021/08/24 00:01:18;;;;;;;;;;;;;;;;;;2041329;28;1375;-82
2021/08/24 00:02:18;;;;;;;;;;;;;;;;;;2043338;29;1915;-82
2021/08/24 00:03:20;;;;;;;;;;;;;;;;;;2082483;28;1677;-82
2021/08/24 00:04:21;;;;;;;;;;;;;;;;;;2083178;28;1239;-82
2021/08/24 00:05:25;;;;;;;;;;;;;;;;;;2049836;29;1275;-82
2021/08/24 00:06:25;;;;;;;;;;;;;;;;;;2042132;29;1539;-82
2021/08/24 00:07:28;;;;;;;;;;;;;;;;;;2056895;28;1875;-83
2021/08/24 00:08:29;;;;;;;;;;;;;;;;;;2049787;29;1368;-83
2021/08/24 00:09:31;;;;;;;;;;;;;;;;;;2049807;29;1691;-83
2021/08/24 00:10:35;;;;;;;;;;;;;;;;;;2057219;28;1010;-83
2021/08/24 00:11:35;;;;;;;;;;;;;;;;;;2051404;28;1814;-83
2021/08/24 00:12:37;;;;;;;;;;;;;;;;;;2049417;29;1380;-83
2021/08/24 00:13:39;;;;;;;;;;;;;;;;;;2049825;29;1382;-83
2021/08/24 00:14:40;;;;;;;;;;;;;;;;;;2049485;29;1674;-83
2021/08/24 00:15:42;;;;;;;;;;;;;;;;;;2049832;29;1378;-83
2021/08/24 00:16:42;;;;;;;;;;;;;;;;;;2042171;29;1866;-83
2021/08/24 00:17:44;;;;;;;;;;;;;;;;;;2083147;28;1493;-83
2021/08/24 00:18:45;;;;;;;;;;;;;;;;;;2074456;28;1376;-83
2021/08/24 00:19:47;;;;;;;;;;;;;;;;;;2033790;29;1303;-83
2021/08/24 00:20:49;;;;;;;;;;;;;;;;;;2041712;29;1533;-83
2021/08/24 00:21:51;;;;;;;;;;;;;;;;;;2068947;28;2024;-83
2021/08/24 00:22:53;;;;;;;;;;;;;;;;;;2041744;29;1906;-83
2021/08/24 00:23:55;;;;;;;;;;;;;;;;;;2041737;29;1424;-83
2021/08/24 00:24:55;;;;;;;;;;;;;;;;;;2041420;29;1351;-83
2021/08/24 00:25:58;;;;;;;;;;;;;;;;;;2049880;28;1949;-84
2021/08/24 00:26:59;;;;;;;;;;;;;;;;;;2052768;28;1922;-83
2021/08/24 00:28:00;;;;;;;;;;;;;;;;;;2057666;28;1433;-83
2021/08/24 00:29:02;;;;;;;;;;;;;;;;;;2049630;29;1354;-84
2021/08/24 00:30:03;;;;;;;;;;;;;;;;;;2041247;28;1598;-83
2021/08/24 00:31:05;;;;;;;;;;;;;;;;;;2046879;28;1863;-83
2021/08/24 00:32:06;;;;;;;;;;;;;;;;;;2041465;28;1888;-84
2021/08/24 00:33:09;;;;;;;;;;;;;;;;;;2033987;29;1644;-83
2021/08/24 00:34:10;;;;;;;;;;;;;;;;;;2041232;29;911;-83
2021/08/24 00:35:11;;;;;;;;;;;;;;;;;;2041947;28;1815;-83
2021/08/24 00:36:14;;;;;;;;;;;;;;;;;;2033729;29;1869;-83
2021/08/24 00:37:15;;;;;;;;;;;;;;;;;;2039557;29;2092;-83
2021/08/24 00:38:20;;;;;;;;;;;;;;;;;;2041422;29;1743;-84
2021/08/24 00:39:20;;;;;;;;;;;;;;;;;;2049489;29;801;-83
2021/08/24 00:40:22;;;;;;;;;;;;;;;;;;2049260;28;1698;-83
2021/08/24 00:41:24;;;;;;;;;;;;;;;;;;2053963;28;1889;-83
2021/08/24 00:42:26;;;;;;;;;;;;;;;;;;2049501;28;1973;-84
2021/08/24 00:43:28;;;;;;;;;;;;;;;;;;2041861;28;1315;-82
2021/08/24 00:44:29;;;;;;;;;;;;;;;;;;2041641;29;1216;-83
2021/08/24 00:45:31;;;;;;;;;;;;;;;;;;2049077;28;1350;-83
2021/08/24 00:46:35;;;;;;;;;;;;;;;;;;2051108;28;1854;-84
2021/08/24 00:47:39;;;;;;;;;;;;;;;;;;2082966;28;1355;-83
2021/08/24 00:48:41;;;;;;;;;;;;;;;;;;2081274;28;1303;-83
2021/08/24 00:49:44;;;;;;;;;;;;;;;;;;2082746;28;1347;-83
2021/08/24 00:50:48;;;;;;;;;;;;;;;;;;2081712;28;1834;-84
2021/08/24 00:51:52;;;;;;;;;;;;;;;;;;2057317;28;1364;-83
2021/08/24 00:52:54;;;;;;;;;;;;;;;;;;2048906;28;1568;-83
2021/08/24 00:53:58;;;;;;;;;;;;;;;;;;2042020;29;1539;-84
2021/08/24 00:55:00;;;;;;;;;;;;;;;;;;2049392;28;1151;-84
2021/08/24 00:56:02;;;;;;;;;;;;;;;;;;2047640;29;1931;-83
2021/08/24 00:57:09;;;;;;;;;;;;;;;;;;2041768;28;1856;-83
2021/08/24 00:58:13;;;;;;;;;;;;;;;;;;2041575;29;1483;-84
2021/08/24 00:59:15;;;;;;;;;;;;;;;;;;2041602;28;1086;-84
2021/08/24 01:00:16;;;;;;;;;;;;;;;;;;2041011;29;1240;-83
2021/08/24 01:01:17;;;;;;;;;;;;;;;;;;2037580;28;1868;-83
2021/08/24 01:02:21;;;;;;;;;;;;;;;;;;2048292;28;1916;-83
2021/08/24 01:03:23;;;;;;;;;;;;;;;;;;2041756;29;1208;-83
2021/08/24 01:04:25;;;;;;;;;;;;;;;;;;2033532;29;1292;-83
2021/08/24 01:05:27;;;;;;;;;;;;;;;;;;2041758;28;1647;-83
2021/08/24 01:06:34;;;;;;;;;;;;;;;;;;2041239;28;1788;-83
2021/08/24 01:07:36;;;;;;;;;;;;;;;;;;2042231;29;1589;-82
2021/08/24 01:08:45;;;;;;;;;;;;;;;;;;2049171;29;1393;-83
2021/08/24 01:09:54;;;;;;;;;;;;;;;;;;2048742;29;871;-82
2021/08/24 01:11:03;;;;;;;;;;;;;;;;;;2041755;29;1871;-82
2021/08/24 01:12:08;;;;;;;;;;;;;;;;;;2042818;29;1848;-82
2021/08/24 01:13:15;;;;;;;;;;;;;;;;;;2041546;28;1196;-82
2021/08/24 01:14:19;;;;;;;;;;;;;;;;;;2033961;28;1668;-83
2021/08/24 01:15:25;;;;;;;;;;;;;;;;;;2041733;29;1754;-82
2021/08/24 01:16:32;;;;;;;;;;;;;;;;;;2041555;28;1951;-82
2021/08/24 01:17:38;;;;;;;;;;;;;;;;;;2042303;29;1382;-81
2021/08/24 01:18:40;;;;;;;;;;;;;;;;;;2040948;28;1618;-83
2021/08/24 01:20:01;;;;;;;;;;;;;;;;;;2041826;29;1315;-83
2021/08/24 01:21:23;;;;;;;;;;;;;;;;;;2050622;28;2156;-83
2021/08/24 01:22:39;;;;;;;;;;;;;;;;;;2044430;28;1911;-83
2021/08/24 01:23:50;;;;;;;;;;;;;;;;;;2052194;28;1617;-83
2021/08/24 01:24:56;;;;;;;;;;;;;;;;;;2043684;29;1240;-83
2021/08/24 01:26:01;;;;;;;;;;;;;;;;;;2040606;29;2124;-83
2021/08/24 01:27:07;;;;;;;;;;;;;;;;;;2042112;29;1844;-83
2021/08/24 01:28:12;;;;;;;;;;;;;;;;;;2082225;28;1236;-84
2021/08/24 01:29:31;;;;;;;;;;;;;;;;;;2079698;28;792;-83
2021/08/24 01:30:47;;;;;;;;;;;;;;;;;;2041026;29;1241;-83
2021/08/24 01:32:02;;;;;;;;;;;;;;;;;;2041770;29;872;-83
2021/08/24 01:33:10;;;;;;;;;;;;;;;;;;2047322;29;1208;-83
2021/08/24 01:34:19;;;;;;;;;;;;;;;;;;2041209;29;1538;-83
2021/08/24 01:35:32;;;;;;;;;;;;;;;;;;2042270;29;1671;-83
2021/08/24 01:36:36;;;;;;;;;;;;;;;;;;2049204;28;1846;-83
2021/08/24 01:37:44;;;;;;;;;;;;;;;;;;2049039;28;1353;-83
2021/08/24 01:38:49;;;;;;;;;;;;;;;;;;2042224;29;1216;-83
2021/08/24 01:39:55;;;;;;;;;;;;;;;;;;2041380;29;1744;-83
2021/08/24 01:40:59;;;;;;;;;;;;;;;;;;2041367;29;1853;-83
2021/08/24 01:42:10;;;;;;;;;;;;;;;;;;2048908;28;1853;-83
2021/08/24 01:43:13;;;;;;;;;;;;;;;;;;2056063;28;2052;-82
2021/08/24 01:44:17;;;;;;;;;;;;;;;;;;2056689;28;1338;-83
2021/08/24 01:45:22;;;;;;;;;;;;;;;;;;2049285;28;1360;-83
2021/08/24 01:46:25;;;;;;;;;;;;;;;;;;2044877;28;1883;-83
2021/08/24 01:47:34;;;;;;;;;;;;;;;;;;2049435;29;1573;-83
2021/08/24 01:48:38;;;;;;;;;;;;;;;;;;2049118;29;1545;-83
2021/08/24 01:49:43;;;;;;;;;;;;;;;;;;2040846;28;1437;-83
2021/08/24 01:50:46;;;;;;;;;;;;;;;;;;2041520;29;1355;-83
2021/08/24 01:51:51;;;;;;;;;;;;;;;;;;2049552;28;1872;-83
2021/08/24 01:52:54;;;;;;;;;;;;;;;;;;2040905;29;1781;-83
2021/08/24 01:53:59;;;;;;;;;;;;;;;;;;2041532;29;1602;-83
2021/08/24 01:55:02;;;;;;;;;;;;;;;;;;2049058;29;1216;-83
2021/08/24 01:56:07;;;;;;;;;;;;;;;;;;2051243;28;2115;-83
2021/08/24 01:57:11;;;;;;;;;;;;;;;;;;2044193;29;1920;-83
2021/08/24 01:58:15;;;;;;;;;;;;;;;;;;2051105;29;1568;-83
2021/08/24 01:59:19;;;;;;;;;;;;;;;;;;2044198;28;1309;-82
2021/08/24 02:00:21;;;;;;;;;;;;;;;;;;2036310;29;1538;-83
2021/08/24 02:01:23;;;;;;;;;;;;;;;;;;2044608;29;1945;-82
2021/08/24 02:02:30;;;;;;;;;;;;;;;;;;2044312;29;1995;-82
2021/08/24 02:03:34;;;;;;;;;;;;;;;;;;2043793;29;1902;-83
2021/08/24 02:04:38;;;;;;;;;;;;;;;;;;2050639;29;1266;-83
2021/08/24 02:05:41;;;;;;;;;;;;;;;;;;2042474;29;1692;-83
2021/08/24 02:06:44;;;;;;;;;;;;;;;;;;2049339;29;1840;-83
2021/08/24 02:07:47;;;;;;;;;;;;;;;;;;2050674;29;954;-83
2021/08/24 02:08:51;;;;;;;;;;;;;;;;;;2042619;29;1666;-83
2021/08/24 02:09:54;;;;;;;;;;;;;;;;;;2042266;29;1478;-83
2021/08/24 02:10:58;;;;;;;;;;;;;;;;;;2043648;28;1887;-83
2021/08/24 02:12:01;;;;;;;;;;;;;;;;;;2046482;29;1882;-83
2021/08/24 02:13:03;;;;;;;;;;;;;;;;;;2042581;29;1344;-83
2021/08/24 02:14:08;;;;;;;;;;;;;;;;;;2050663;29;1336;-83
2021/08/24 02:15:09;;;;;;;;;;;;;;;;;;2043072;29;1916;-83
2021/08/24 02:16:13;;;;;;;;;;;;;;;;;;2066411;28;2058;-83
2021/08/24 02:17:15;;;;;;;;;;;;;;;;;;2042584;29;1908;-83
2021/08/24 02:18:20;;;;;;;;;;;;;;;;;;2042353;28;1220;-83
2021/08/24 02:19:23;;;;;;;;;;;;;;;;;;2034624;29;1563;-83
2021/08/24 02:20:28;;;;;;;;;;;;;;;;;;2042320;29;1770;-83
2021/08/24 02:21:31;;;;;;;;;;;;;;;;;;2043089;28;1863;-84
2021/08/24 02:22:35;;;;;;;;;;;;;;;;;;2042296;29;1366;-83
2021/08/24 02:23:38;;;;;;;;;;;;;;;;;;2035135;28;1903;-83
2021/08/24 02:24:41;;;;;;;;;;;;;;;;;;2042097;29;1350;-83
2021/08/24 02:25:45;;;;;;;;;;;;;;;;;;2050474;29;1318;-82
2021/08/24 02:26:48;;;;;;;;;;;;;;;;;;2044137;29;1872;-83
2021/08/24 02:27:52;;;;;;;;;;;;;;;;;;2050556;28;1725;-82
2021/08/24 02:28:55;;;;;;;;;;;;;;;;;;2050173;28;1224;-82
2021/08/24 02:29:57;;;;;;;;;;;;;;;;;;2050626;28;1329;-82
2021/08/24 02:30:59;;;;;;;;;;;;;;;;;;2049365;28;1899;-82
2021/08/24 02:32:03;;;;;;;;;;;;;;;;;;2045906;29;1862;-82
2021/08/24 02:33:04;;;;;;;;;;;;;;;;;;2042363;28;1247;-82
2021/08/24 02:34:10;;;;;;;;;;;;;;;;;;2042620;28;1327;-83
2021/08/24 02:35:15;;;;;;;;;;;;;;;;;;2043210;28;1693;-83
2021/08/24 02:36:17;;;;;;;;;;;;;;;;;;2042540;29;1876;-82
2021/08/24 02:37:22;;;;;;;;;;;;;;;;;;2049716;29;1899;-82
2021/08/24 02:38:26;;;;;;;;;;;;;;;;;;2041975;29;1331;-82
2021/08/24 02:39:33;;;;;;;;;;;;;;;;;;2034851;29;1481;-83
2021/08/24 02:40:39;;;;;;;;;;;;;;;;;;2034970;29;1363;-83
2021/08/24 02:41:44;;;;;;;;;;;;;;;;;;2043338;29;2034;-82
2021/08/24 02:42:49;;;;;;;;;;;;;;;;;;2042260;29;1317;-82
2021/08/24 02:43:56;;;;;;;;;;;;;;;;;;2042788;29;1257;-82
2021/08/24 02:45:01;;;;;;;;;;;;;;;;;;2083525;28;1361;-83
2021/08/24 02:46:04;;;;;;;;;;;;;;;;;;2073703;28;1891;-83
2021/08/24 02:47:07;;;;;;;;;;;;;;;;;;2042464;28;1907;-83
2021/08/24 02:48:10;;;;;;;;;;;;;;;;;;2034671;29;1743;-83
2021/08/24 02:49:13;;;;;;;;;;;;;;;;;;2042047;29;1286;-83
2021/08/24 02:50:14;;;;;;;;;;;;;;;;;;2042054;29;1115;-83
2021/08/24 02:51:17;;;;;;;;;;;;;;;;;;2045926;29;1876;-83
2021/08/24 02:52:18;;;;;;;;;;;;;;;;;;2036079;28;2037;-83
2021/08/24 02:53:21;;;;;;;;;;;;;;;;;;2034637;29;1423;-83
2021/08/24 02:54:25;;;;;;;;;;;;;;;;;;2042238;29;1688;-82
2021/08/24 02:55:29;;;;;;;;;;;;;;;;;;2042588;28;1251;-82
2021/08/24 02:56:30;;;;;;;;;;;;;;;;;;2042452;29;1855;-83
2021/08/24 02:57:32;;;;;;;;;;;;;;;;;;2050264;29;1398;-82
2021/08/24 02:58:33;;;;;;;;;;;;;;;;;;2049991;29;1353;-83
2021/08/24 02:59:35;;;;;;;;;;;;;;;;;;2042125;28;1247;-83
2021/08/24 03:00:36;;;;;;;;;;;;;;;;;;2042135;29;967;-83
2021/08/24 03:01:38;;;;;;;;;;;;;;;;;;2050368;28;1986;-83
2021/08/24 03:02:38;;;;;;;;;;;;;;;;;;2050015;29;803;-83
2021/08/24 03:03:40;;;;;;;;;;;;;;;;;;2050098;29;1918;-83
2021/08/24 03:04:41;;;;;;;;;;;;;;;;;;2083305;28;1569;-83
2021/08/24 03:05:43;;;;;;;;;;;;;;;;;;2083961;28;1663;-83
2021/08/24 03:06:44;;;;;;;;;;;;;;;;;;2047571;28;1918;-83
2021/08/24 03:07:46;;;;;;;;;;;;;;;;;;2041521;29;1407;-83
2021/08/24 03:08:48;;;;;;;;;;;;;;;;;;2049665;29;868;-83
2021/08/24 03:09:50;;;;;;;;;;;;;;;;;;2042340;29;1331;-83
2021/08/24 03:10:52;;;;;;;;;;;;;;;;;;2042386;28;1844;-83
2021/08/24 03:11:57;;;;;;;;;;;;;;;;;;2050441;28;1827;-83
2021/08/24 03:13:04;;;;;;;;;;;;;;;;;;2049533;28;1638;-83
2021/08/24 03:14:08;;;;;;;;;;;;;;;;;;2050559;29;1267;-83
2021/08/24 03:15:14;;;;;;;;;;;;;;;;;;2042064;28;1753;-83
2021/08/24 03:16:17;;;;;;;;;;;;;;;;;;2042890;29;1334;-83
2021/08/24 03:17:22;;;;;;;;;;;;;;;;;;2049415;28;1907;-83
2021/08/24 03:18:26;;;;;;;;;;;;;;;;;;2041664;29;1391;-83
2021/08/24 03:19:30;;;;;;;;;;;;;;;;;;2034507;28;1213;-83
2021/08/24 03:20:35;;;;;;;;;;;;;;;;;;2042126;29;1586;-83
2021/08/24 03:21:36;;;;;;;;;;;;;;;;;;2042543;29;1852;-83
2021/08/24 03:22:40;;;;;;;;;;;;;;;;;;2042043;28;1523;-83
2021/08/24 03:23:43;;;;;;;;;;;;;;;;;;2049925;29;1993;-83
2021/08/24 03:24:44;;;;;;;;;;;;;;;;;;2050025;29;1413;-83
2021/08/24 03:25:47;;;;;;;;;;;;;;;;;;2082686;28;1965;-83
2021/08/24 03:26:50;;;;;;;;;;;;;;;;;;2047621;28;1975;-83
2021/08/24 03:27:52;;;;;;;;;;;;;;;;;;2041860;29;817;-82
2021/08/24 03:28:53;;;;;;;;;;;;;;;;;;2049833;29;1322;-83
2021/08/24 03:29:56;;;;;;;;;;;;;;;;;;2041980;29;1839;-82
2021/08/24 03:30:57;;;;;;;;;;;;;;;;;;2034433;28;1332;-83
2021/08/24 03:31:59;;;;;;;;;;;;;;;;;;2037570;29;1885;-84
2021/08/24 03:33:00;;;;;;;;;;;;;;;;;;2041862;28;1235;-83
2021/08/24 03:34:02;;;;;;;;;;;;;;;;;;2042204;28;1548;-84
2021/08/24 03:35:03;;;;;;;;;;;;;;;;;;2041486;29;1257;-83
2021/08/24 03:36:05;;;;;;;;;;;;;;;;;;2083608;28;1897;-83
2021/08/24 03:37:06;;;;;;;;;;;;;;;;;;2083093;28;1863;-83
2021/08/24 03:38:07;;;;;;;;;;;;;;;;;;2050023;29;1311;-84
2021/08/24 03:39:08;;;;;;;;;;;;;;;;;;2042328;29;1700;-83
2021/08/24 03:40:11;;;;;;;;;;;;;;;;;;2041727;29;1656;-84
2021/08/24 03:41:11;;;;;;;;;;;;;;;;;;2041744;28;1828;-87
2021/08/24 03:42:15;;;;;;;;;;;;;;;;;;2034592;29;1873;-87
2021/08/24 03:43:16;;;;;;;;;;;;;;;;;;2042584;29;1915;-87
2021/08/24 03:44:18;;;;;;;;;;;;;;;;;;2042163;29;1346;-87
2021/08/24 03:45:18;;;;;;;;;;;;;;;;;;2034718;28;1216;-87
2021/08/24 03:46:20;;;;;;;;;;;;;;;;;;2042604;29;1922;-87
2021/08/24 03:47:21;;;;;;;;;;;;;;;;;;2050013;28;1860;-87
2021/08/24 03:48:23;;;;;;;;;;;;;;;;;;2041906;29;1417;-87
2021/08/24 03:49:24;;;;;;;;;;;;;;;;;;2042235;29;1264;-86
2021/08/24 03:50:26;;;;;;;;;;;;;;;;;;2041917;28;1258;-87
2021/08/24 03:51:26;;;;;;;;;;;;;;;;;;2050165;28;1846;-86
2021/08/24 03:52:28;;;;;;;;;;;;;;;;;;2042342;28;1885;-86
2021/08/24 03:53:29;;;;;;;;;;;;;;;;;;2034684;29;1289;-86
2021/08/24 03:54:30;;;;;;;;;;;;;;;;;;2041927;29;1336;-86
2021/08/24 03:55:32;;;;;;;;;;;;;;;;;;2049941;29;1343;-86
2021/08/24 03:56:33;;;;;;;;;;;;;;;;;;2041612;29;1846;-86
2021/08/24 03:57:37;;;;;;;;;;;;;;;;;;2042350;29;1405;-86
2021/08/24 03:58:37;;;;;;;;;;;;;;;;;;2042157;29;1234;-86
2021/08/24 03:59:39;;;;;;;;;;;;;;;;;;2042178;28;1319;-86
2021/08/24 04:00:41;;;;;;;;;;;;;;;;;;2042188;29;1313;-86
2021/08/24 04:01:43;;;;;;;;;;;;;;;;;;2044011;28;1915;-86
2021/08/24 04:02:44;;;;;;;;;;;;;;;;;;2057347;28;1442;-86
2021/08/24 04:03:45;;;;;;;;;;;;;;;;;;2057665;28;1980;-86
2021/08/24 04:04:47;;;;;;;;;;;;;;;;;;2045483;29;1499;-87
2021/08/24 04:05:48;;;;;;;;;;;;;;;;;;2049063;28;1459;-87
2021/08/24 04:06:49;;;;;;;;;;;;;;;;;;2048828;29;1455;-86
2021/08/24 04:07:52;;;;;;;;;;;;;;;;;;2049899;28;1565;-86
2021/08/24 04:08:53;;;;;;;;;;;;;;;;;;2042047;29;1457;-86
2021/08/24 04:09:55;;;;;;;;;;;;;;;;;;2049880;29;1295;-86
2021/08/24 04:10:56;;;;;;;;;;;;;;;;;;2042911;28;1863;-86
2021/08/24 04:11:58;;;;;;;;;;;;;;;;;;2047846;29;1857;-86
2021/08/24 04:13:00;;;;;;;;;;;;;;;;;;2042254;28;1510;-86
2021/08/24 04:14:02;;;;;;;;;;;;;;;;;;2042392;29;937;-86
2021/08/24 04:15:06;;;;;;;;;;;;;;;;;;2042056;29;1235;-86
2021/08/24 04:16:09;;;;;;;;;;;;;;;;;;2047290;28;1950;-86
2021/08/24 04:17:10;;;;;;;;;;;;;;;;;;2041587;28;1207;-87
2021/08/24 04:18:11;;;;;;;;;;;;;;;;;;2042015;29;1375;-87
2021/08/24 04:19:12;;;;;;;;;;;;;;;;;;2041924;28;1346;-87
2021/08/24 04:20:14;;;;;;;;;;;;;;;;;;2033897;28;1440;-87
2021/08/24 04:21:17;;;;;;;;;;;;;;;;;;2037469;29;1626;-87
2021/08/24 04:22:20;;;;;;;;;;;;;;;;;;2041916;29;1869;-86
2021/08/24 04:23:21;;;;;;;;;;;;;;;;;;2041600;28;1321;-87
2021/08/24 04:24:23;;;;;;;;;;;;;;;;;;2049978;28;1907;-87
2021/08/24 04:25:23;;;;;;;;;;;;;;;;;;2049877;28;1218;-87
2021/08/24 04:26:27;;;;;;;;;;;;;;;;;;2044389;28;1919;-87
2021/08/24 04:27:28;;;;;;;;;;;;;;;;;;2042232;28;1331;-87
2021/08/24 04:28:31;;;;;;;;;;;;;;;;;;2034272;29;1316;-87
2021/08/24 04:29:32;;;;;;;;;;;;;;;;;;2034010;28;1391;-87
2021/08/24 04:30:36;;;;;;;;;;;;;;;;;;2041788;28;1275;-88
2021/08/24 04:31:38;;;;;;;;;;;;;;;;;;2045405;28;2097;-88
2021/08/24 04:32:43;;;;;;;;;;;;;;;;;;2040277;29;1499;-88
2021/08/24 04:33:44;;;;;;;;;;;;;;;;;;2049437;29;1565;-88
2021/08/24 04:34:45;;;;;;;;;;;;;;;;;;2046490;29;1431;-88
2021/08/24 04:35:47;;;;;;;;;;;;;;;;;;2047717;29;1772;-88
2021/08/24 04:36:48;;;;;;;;;;;;;;;;;;2042677;29;1841;-88
2021/08/24 04:37:50;;;;;;;;;;;;;;;;;;2041678;29;1233;-89
2021/08/24 04:38:52;;;;;;;;;;;;;;;;;;2033836;28;1212;-88
2021/08/24 04:39:52;;;;;;;;;;;;;;;;;;2034046;29;1330;-88
2021/08/24 04:40:54;;;;;;;;;;;;;;;;;;2042505;29;1772;-88
2021/08/24 04:41:55;;;;;;;;;;;;;;;;;;2053768;28;1607;-88
2021/08/24 04:42:57;;;;;;;;;;;;;;;;;;2041680;29;1395;-88
2021/08/24 04:43:59;;;;;;;;;;;;;;;;;;2041989;28;1915;-89
2021/08/24 04:45:01;;;;;;;;;;;;;;;;;;2046247;28;1327;-89
2021/08/24 04:46:02;;;;;;;;;;;;;;;;;;2047848;28;1720;-87
2021/08/24 04:47:04;;;;;;;;;;;;;;;;;;2049208;29;1342;-88
2021/08/24 04:48:05;;;;;;;;;;;;;;;;;;2052463;28;1373;-87
2021/08/24 04:49:06;;;;;;;;;;;;;;;;;;2049833;28;1380;-88
2021/08/24 04:50:08;;;;;;;;;;;;;;;;;;2049160;28;1365;-87
2021/08/24 04:51:09;;;;;;;;;;;;;;;;;;2048808;29;1733;-89
2021/08/24 04:52:10;;;;;;;;;;;;;;;;;;2047357;29;1576;-89
2021/08/24 04:53:13;;;;;;;;;;;;;;;;;;2049554;29;1388;-88
2021/08/24 04:54:14;;;;;;;;;;;;;;;;;;2049637;29;1360;-89
2021/08/24 04:55:16;;;;;;;;;;;;;;;;;;2049928;28;1400;-88
2021/08/24 04:56:17;;;;;;;;;;;;;;;;;;2047616;28;1732;-87
2021/08/24 04:57:19;;;;;;;;;;;;;;;;;;2041636;29;1377;-87
2021/08/24 04:58:20;;;;;;;;;;;;;;;;;;2041810;29;1341;-87
2021/08/24 04:59:24;;;;;;;;;;;;;;;;;;2041305;29;1321;-87
2021/08/24 05:00:25;;;;;;;;;;;;;;;;;;2047335;28;1311;-87
2021/08/24 05:01:27;;;;;;;;;;;;;;;;;;2047643;28;1462;-87
2021/08/24 05:02:29;;;;;;;;;;;;;;;;;;2055760;28;1358;-87
2021/08/24 05:03:31;;;;;;;;;;;;;;;;;;2046195;29;1334;-86
2021/08/24 05:04:33;;;;;;;;;;;;;;;;;;2045215;28;1903;-86
2021/08/24 05:05:34;;;;;;;;;;;;;;;;;;2045049;29;1325;-86
2021/08/24 05:06:35;;;;;;;;;;;;;;;;;;2047074;29;2126;-88
2021/08/24 05:07:36;;;;;;;;;;;;;;;;;;2048525;28;1390;-87
2021/08/24 05:08:38;;;;;;;;;;;;;;;;;;2041722;28;1313;-87
2021/08/24 05:09:39;;;;;;;;;;;;;;;;;;2041583;28;1341;-87
2021/08/24 05:10:41;;;;;;;;;;;;;;;;;;2063120;28;1372;-88
2021/08/24 05:11:42;;;;;;;;;;;;;;;;;;2050679;28;2032;-88
2021/08/24 05:12:44;;;;;;;;;;;;;;;;;;2049434;29;1196;-92
2021/08/24 05:13:46;;;;;;;;;;;;;;;;;;2041928;29;1545;-87
2021/08/24 05:14:48;;;;;;;;;;;;;;;;;;2042671;29;1444;-89
2021/08/24 05:15:50;;;;;;;;;;;;;;;;;;2047334;29;1705;-90
2021/08/24 05:16:52;;;;;;;;;;;;;;;;;;2082876;28;1378;-89
2021/08/24 05:17:54;;;;;;;;;;;;;;;;;;2090513;28;1549;-89
2021/08/24 05:18:55;;;;;;;;;;;;;;;;;;2049160;29;1438;-88
2021/08/24 05:19:57;;;;;;;;;;;;;;;;;;2041694;29;1335;-89
2021/08/24 05:21:00;;;;;;;;;;;;;;;;;;2042165;28;1864;-92
2021/08/24 05:22:02;;;;;;;;;;;;;;;;;;2043481;28;1662;-88
2021/08/24 05:23:04;;;;;;;;;;;;;;;;;;2057626;28;1254;-88
2021/08/24 05:24:05;;;;;;;;;;;;;;;;;;2042332;28;1984;-86
2021/08/24 05:25:09;;;;;;;;;;;;;;;;;;2041962;29;1189;-89
2021/08/24 05:26:12;;;;;;;;;;;;;;;;;;2040978;29;1726;-87
2021/08/24 05:27:13;;;;;;;;;;;;;;;;;;2040270;28;2010;-88
2021/08/24 05:28:15;;;;;;;;;;;;;;;;;;2049081;28;1366;-88
2021/08/24 05:29:16;;;;;;;;;;;;;;;;;;2091530;28;1351;-89
2021/08/24 05:30:28;;;;;;;;;;;;;;;;;;2091406;28;1342;-89
2021/08/24 05:31:29;;;;;;;;;;;;;;;;;;2056156;28;1682;-89
2021/08/24 05:34:58;;;;;;;;;;;;;;;;;;2050378;29;685;-89
2021/08/24 05:35:59;;;;;;;;;;;;;;;;;;2057637;28;1343;-90
2021/08/24 05:37:31;;;;;;;;;;;;;;;;;;2049739;28;1180;-89
2021/08/24 05:38:33;;;;;;;;;;;;;;;;;;2046579;28;1349;-88
2021/08/24 05:39:35;;;;;;;;;;;;;;;;;;2049767;28;1522;-88
2021/08/24 05:40:36;;;;;;;;;;;;;;;;;;2049687;28;1560;-89
2021/08/24 05:41:38;;;;;;;;;;;;;;;;;;2041536;29;1252;-89
2021/08/24 05:42:39;;;;;;;;;;;;;;;;;;2041695;29;1337;-88
2021/08/24 05:43:41;;;;;;;;;;;;;;;;;;2041738;29;1316;-89
2021/08/24 05:46:45;;;;;;;;;;;;;;;;;;2050336;29;607;-88
2021/08/24 05:47:46;;;;;;;;;;;;;;;;;;2049833;29;1181;-89
2021/08/24 05:49:15;;;;;;;;;;;;;;;;;;2041339;29;1294;-89
2021/08/24 05:50:17;;;;;;;;;;;;;;;;;;2044915;29;1334;-90
2021/08/24 05:51:22;;;;;;;;;;;;;;;;;;2037433;29;1801;-89
2021/08/24 05:52:23;;;;;;;;;;;;;;;;;;2041635;29;1320;-89
2021/08/24 05:53:26;;;;;;;;;;;;;;;;;;2076311;28;1546;-89
2021/08/24 05:54:27;;;;;;;;;;;;;;;;;;2080295;28;1432;-89
2021/08/24 05:55:29;;;;;;;;;;;;;;;;;;2057204;28;1319;-88
2021/08/24 05:56:30;;;;;;;;;;;;;;;;;;2045250;28;2096;-89
2021/08/24 05:57:32;;;;;;;;;;;;;;;;;;2042107;28;1386;-90
2021/08/24 05:58:32;;;;;;;;;;;;;;;;;;2049556;28;1192;-90
2021/08/24 05:59:35;;;;;;;;;;;;;;;;;;2041687;28;1256;-89
2021/08/24 06:00:36;;;;;;;;;;;;;;;;;;2035142;29;1567;-90
2021/08/24 06:01:38;;;;;;;;;;;;;;;;;;2043004;28;1804;-88
2021/08/24 06:02:41;;;;;;;;;;;;;;;;;;2049052;29;1301;-91
2021/08/24 06:03:43;;;;;;;;;;;;;;;;;;2041968;28;1192;-89
2021/08/24 06:04:46;;;;;;;;;;;;;;;;;;2041423;28;1910;-89
2021/08/24 06:05:47;;;;;;;;;;;;;;;;;;2041502;28;1882;-91
2021/08/24 06:06:50;;;;;;;;;;;;;;;;;;2054755;28;1383;-93
2021/08/24 06:07:52;;;;;;;;;;;;;;;;;;2049424;29;1248;-89
2021/08/24 06:08:53;;;;;;;;;;;;;;;;;;2049182;28;1334;-89
2021/08/24 06:09:55;;;;;;;;;;;;;;;;;;2049044;29;1447;-89
2021/08/24 06:10:56;;;;;;;;;;;;;;;;;;2048949;29;2049;-89
2021/08/24 06:11:58;;;;;;;;;;;;;;;;;;2042934;28;1671;-90
2021/08/24 06:13:00;;;;;;;;;;;;;;;;;;2033765;29;1189;-90
2021/08/24 06:14:02;;;;;;;;;;;;;;;;;;2041732;29;1192;-89
2021/08/24 06:15:04;;;;;;;;;;;;;;;;;;2041904;29;1574;-89
2021/08/24 06:16:05;;;;;;;;;;;;;;;;;;2046157;28;1732;-89
2021/08/24 06:17:08;;;;;;;;;;;;;;;;;;2041807;28;1758;-89
2021/08/24 06:18:10;;;;;;;;;;;;;;;;;;2041714;29;1224;-89
2021/08/24 06:20:31;;;;;;;;;;;;;;;;;;2042573;28;1338;-94
2021/08/24 06:21:33;;;;;;;;;;;;;;;;;;2042623;29;2030;-95
2021/08/24 06:22:34;;;;;;;;;;;;;;;;;;2036082;29;1377;-89
2021/08/24 06:23:36;;;;;;;;;;;;;;;;;;2049168;28;1409;-89
2021/08/24 06:24:38;;;;;;;;;;;;;;;;;;2049117;29;1906;-88
2021/08/24 06:25:39;;;;;;;;;;;;;;;;;;2049502;29;1208;-88
2021/08/24 06:26:41;;;;;;;;;;;;;;;;;;2047497;29;2107;-89
2021/08/24 06:27:43;;;;;;;;;;;;;;;;;;2049483;29;1327;-89
2021/08/24 06:28:44;;;;;;;;;;;;;;;;;;2049391;29;1393;-89
2021/08/24 06:29:46;;;;;;;;;;;;;;;;;;2049456;29;1276;-89
2021/08/24 06:30:47;;;;;;;;;;;;;;;;;;2041246;29;2049;-90
2021/08/24 06:31:50;;;;;;;;;;;;;;;;;;2039580;28;1371;-88
2021/08/24 06:32:52;;;;;;;;;;;;;;;;;;2049369;29;1164;-90
2021/08/24 06:33:56;;;;;;;;;;;;;;;;;;2048215;28;1534;-91
2021/08/24 06:34:56;;;;;;;;;;;;;;;;;;2041489;28;1209;-91
2021/08/24 06:35:59;;;;;;;;;;;;;;;;;;2048654;28;1919;-91
2021/08/24 06:37:00;;;;;;;;;;;;;;;;;;2045154;28;2000;-93
2021/08/24 06:38:01;;;;;;;;;;;;;;;;;;2035202;29;1479;-93
2021/08/24 06:39:03;;;;;;;;;;;;;;;;;;2042517;29;1554;-90
2021/08/24 06:40:06;;;;;;;;;;;;;;;;;;2047835;28;1586;-91
2021/08/24 06:41:08;;;;;;;;;;;;;;;;;;2049560;28;1232;-91
2021/08/24 06:42:10;;;;;;;;;;;;;;;;;;2049180;28;1970;-90
2021/08/24 06:43:12;;;;;;;;;;;;;;;;;;2042858;29;1248;-90
2021/08/24 06:44:13;;;;;;;;;;;;;;;;;;2050572;28;1176;-88
2021/08/24 06:45:17;;;;;;;;;;;;;;;;;;2050868;29;1911;-89
2021/08/24 06:46:18;;;;;;;;;;;;;;;;;;2049698;29;1891;-89
2021/08/24 06:47:20;;;;;;;;;;;;;;;;;;2043423;29;1872;-89
2021/08/24 06:48:22;;;;;;;;;;;;;;;;;;2043044;28;1443;-89
2021/08/24 06:49:26;;;;;;;;;;;;;;;;;;2042617;29;1366;-90
2021/08/24 06:50:27;;;;;;;;;;;;;;;;;;2034999;28;1422;-96
2021/08/24 06:51:30;;;;;;;;;;;;;;;;;;2042305;29;1244;-90
2021/08/24 06:52:31;;;;;;;;;;;;;;;;;;2042715;29;1387;-89
2021/08/24 06:53:32;;;;;;;;;;;;;;;;;;2042828;28;1204;-87
2021/08/24 06:54:35;;;;;;;;;;;;;;;;;;2042646;28;1177;-88
2021/08/24 06:55:37;;;;;;;;;;;;;;;;;;2042785;29;1532;-88
2021/08/24 06:56:39;;;;;;;;;;;;;;;;;;2047528;28;2029;-88
2021/08/24 06:57:41;;;;;;;;;;;;;;;;;;2042407;29;1219;-88
2021/08/24 06:58:44;;;;;;;;;;;;;;;;;;2042254;29;1300;-87
2021/08/24 06:59:45;;;;;;;;;;;;;;;;;;2042552;29;1212;-88
2021/08/24 07:00:48;;;;;;;;;;;;;;;;;;2042563;29;1847;-90
2021/08/24 07:01:50;;;;;;;;;;;;;;;;;;2042765;29;2154;-90
2021/08/24 07:02:53;;;;;;;;;;;;;;;;;;2083799;28;1208;-90
2021/08/24 07:03:55;;;;;;;;;;;;;;;;;;2083151;28;1285;-90
2021/08/24 07:04:57;;;;;;;;;;;;;;;;;;2050656;29;1891;-90
2021/08/24 07:05:59;;;;;;;;;;;;;;;;;;2052266;28;1866;-90
2021/08/24 07:07:00;;;;;;;;;;;;;;;;;;2042440;29;1228;-90
2021/08/24 07:08:02;;;;;;;;;;;;;;;;;;2042747;29;1339;-90
2021/08/24 07:09:13;;;;;;;;;;;;;;;;;;2050658;28;1189;-90
2021/08/24 07:10:14;;;;;;;;;;;;;;;;;;2050755;29;1216;-91
2021/08/24 07:11:16;;;;;;;;;;;;;;;;;;2050692;28;1469;-90
2021/08/24 07:12:17;;;;;;;;;;;;;;;;;;2050272;29;2098;-90
2021/08/24 07:13:19;;;;;;;;;;;;;;;;;;2050745;28;1243;-90
2021/08/24 07:14:20;;;;;;;;;;;;;;;;;;2050679;29;1271;-90
2021/08/24 07:15:25;;;;;;;;;;;;;;;;;;2051121;28;1236;-90
2021/08/24 07:16:27;;;;;;;;;;;;;;;;;;2050425;29;1257;-90
2021/08/24 07:17:28;;;;;;;;;;;;;;;;;;2050196;29;2051;-90
2021/08/24 07:18:30;;;;;;;;;;;;;;;;;;2050528;29;1188;-89
2021/08/24 07:19:32;;;;;;;;;;;;;;;;;;2050165;29;1287;-90
2021/08/24 07:20:34;;;;;;;;;;;;;;;;;;2049951;29;1235;-90
2021/08/24 07:21:43;;;;;;;;;;;;;;;;;;2042627;29;1330;-90
2021/08/24 07:23:10;;;;;;;;;;;;;;;;;;2046650;29;690;-91